Rechercher aéroport 
image banner adimage banner adimage banner ad
image banner ad

PA58 - Rocktop

Situé à Chambersburg, United States

ICAO - PA58, IATA -

Données fournies par Airmate  

Information générale

Coordonnées: N39°58'30" W77°33'28"
Élévation : 770 feet MSL.
Variation magnétique : -09° East
Voir autres Aéroports à Pennsylvania

Données opérationnelles

Special qualification required
Heure actuelle UTC:
Heure actuelle locale:
METAR: KHGR 132053Z 25005KT 10SM CLR 24/18 A2986 RMK AO2 SLP117 T02390183 58013 $
Voir NOTAMs / SUP AIP / TFR affectant cet aéroport [VIEW]
Fréquences de communication: [VIEW]

Pistes:

Identifiant RWYQFULongueur (ft)Largeur (ft)SurfaceLDA (ft)
131800100GRAVEL
311800100GRAVEL

Coordonnées de l'aéroport

Adresse: Chambersburg United States

Vue satellite de PA58